sensor_id;sensor_type;location;lat;lon;timestamp;pressure;altitude;pressure_sealevel;temperature
43802;BMP280;29429;51.074;13.764;2023-04-01T00:11:40;98177.91;;;11.53
43802;BMP280;29429;51.074;13.764;2023-04-01T00:14:08;98180.63;;;11.58
43802;BMP280;29429;51.074;13.764;2023-04-01T00:16:35;98180.13;;;11.61
43802;BMP280;29429;51.074;13.764;2023-04-01T00:19:02;98176.09;;;11.58
43802;BMP280;29429;51.074;13.764;2023-04-01T00:21:29;98184.47;;;11.67
43802;BMP280;29429;51.074;13.764;2023-04-01T00:23:56;98179.38;;;11.66
43802;BMP280;29429;51.074;13.764;2023-04-01T00:26:24;98179.91;;;11.68
43802;BMP280;29429;51.074;13.764;2023-04-01T00:28:52;98178.56;;;11.65
43802;BMP280;29429;51.074;13.764;2023-04-01T00:31:19;98179.09;;;11.62
43802;BMP280;29429;51.074;13.764;2023-04-01T00:33:47;98183.34;;;11.63
43802;BMP280;29429;51.074;13.764;2023-04-01T00:36:21;98174.31;;;11.64
43802;BMP280;29429;51.074;13.764;2023-04-01T00:38:49;98168.47;;;11.67
43802;BMP280;29429;51.074;13.764;2023-04-01T00:41:18;98172.72;;;11.68
43802;BMP280;29429;51.074;13.764;2023-04-01T00:43:49;98174.94;;;11.71
43802;BMP280;29429;51.074;13.764;2023-04-01T00:46:18;98176.28;;;11.74
43802;BMP280;29429;51.074;13.764;2023-04-01T00:48:55;98182.13;;;11.71
43802;BMP280;29429;51.074;13.764;2023-04-01T00:51:28;98184.63;;;11.77
43802;BMP280;29429;51.074;13.764;2023-04-01T00:53:59;98178.97;;;11.74
43802;BMP280;29429;51.074;13.764;2023-04-01T00:56:40;98182.41;;;11.69
43802;BMP280;29429;51.074;13.764;2023-04-01T00:59:18;98179.16;;;11.67
43802;BMP280;29429;51.074;13.764;2023-04-01T01:01:46;98179.63;;;11.64
43802;BMP280;29429;51.074;13.764;2023-04-01T01:04:28;98191.41;;;11.68
43802;BMP280;29429;51.074;13.764;2023-04-01T01:10:17;98181.22;;;11.65
43802;BMP280;29429;51.074;13.764;2023-04-01T01:13:10;98180.75;;;11.68
43802;BMP280;29429;51.074;13.764;2023-04-01T01:15:46;98182.41;;;11.69
43802;BMP280;29429;51.074;13.764;2023-04-01T01:18:41;98176.00;;;11.70
43802;BMP280;29429;51.074;13.764;2023-04-01T01:27:20;98167.81;;;11.60
43802;BMP280;29429;51.074;13.764;2023-04-01T01:30:01;98171.13;;;11.67
43802;BMP280;29429;51.074;13.764;2023-04-01T01:33:17;98172.19;;;11.66
43802;BMP280;29429;51.074;13.764;2023-04-01T01:35:54;98170.31;;;11.67
43802;BMP280;29429;51.074;13.764;2023-04-01T01:38:27;98172.72;;;11.68
43802;BMP280;29429;51.074;13.764;2023-04-01T01:41:03;98180.81;;;11.73
43802;BMP280;29429;51.074;13.764;2023-04-01T01:43:43;98177.66;;;11.76
43802;BMP280;29429;51.074;13.764;2023-04-01T01:46:19;98167.47;;;11.73
43802;BMP280;29429;51.074;13.764;2023-04-01T01:48:51;98187.84;;;11.79
43802;BMP280;29429;51.074;13.764;2023-04-01T01:51:21;98178.72;;;11.75
43802;BMP280;29429;51.074;13.764;2023-04-01T01:53:49;98176.84;;;11.76
43802;BMP280;29429;51.074;13.764;2023-04-01T01:56:21;98179.81;;;11.79
43802;BMP280;29429;51.074;13.764;2023-04-01T01:58:55;98172.06;;;11.78
43802;BMP280;29429;51.074;13.764;2023-04-01T02:01:29;98181.44;;;11.80
43802;BMP280;29429;51.074;13.764;2023-04-01T02:04:07;98176.84;;;11.76
43802;BMP280;29429;51.074;13.764;2023-04-01T02:07:02;98179.78;;;11.74
43802;BMP280;29429;51.074;13.764;2023-04-01T02:09:31;98178.41;;;11.72
43802;BMP280;29429;51.074;13.764;2023-04-01T02:12:07;98183.81;;;11.77
43802;BMP280;29429;51.074;13.764;2023-04-01T02:15:03;98180.88;;;11.78
43802;BMP280;29429;51.074;13.764;2023-04-01T02:17:34;98183.00;;;11.76
43802;BMP280;29429;51.074;13.764;2023-04-01T02:20:12;98180.03;;;11.73
43802;BMP280;29429;51.074;13.764;2023-04-01T02:22:52;98183.00;;;11.76
43802;BMP280;29429;51.074;13.764;2023-04-01T02:25:41;98176.28;;;11.74
43802;BMP280;29429;51.074;13.764;2023-04-01T02:28:10;98189.41;;;11.75
43802;BMP280;29429;51.074;13.764;2023-04-01T02:30:41;98190.47;;;11.74
43802;BMP280;29429;51.074;13.764;2023-04-01T02:33:10;98190.19;;;11.76
43802;BMP280;29429;51.074;13.764;2023-04-01T02:35:37;98186.06;;;11.68
43802;BMP280;29429;51.074;13.764;2023-04-01T02:38:06;98183.50;;;11.73
43802;BMP280;29429;51.074;13.764;2023-04-01T02:40:51;98202.25;;;11.78
43802;BMP280;29429;51.074;13.764;2023-04-01T02:43:18;98181.41;;;11.75
43802;BMP280;29429;51.074;13.764;2023-04-01T02:45:46;98195.53;;;11.76
43802;BMP280;29429;51.074;13.764;2023-04-01T02:48:13;98193.44;;;11.78
43802;BMP280;29429;51.074;13.764;2023-04-01T02:50:40;98196.34;;;11.76
43802;BMP280;29429;51.074;13.764;2023-04-01T02:53:08;98199.00;;;11.76
43802;BMP280;29429;51.074;13.764;2023-04-01T02:55:35;98200.88;;;11.76
43802;BMP280;29429;51.074;13.764;2023-04-01T02:58:02;98197.91;;;11.72
43802;BMP280;29429;51.074;13.764;2023-04-01T03:00:30;98200.59;;;11.72
43802;BMP280;29429;51.074;13.764;2023-04-01T03:02:57;98203.25;;;11.72
43802;BMP280;29429;51.074;13.764;2023-04-01T03:05:25;98203.00;;;11.74
43802;BMP280;29429;51.074;13.764;2023-04-01T03:07:52;98204.47;;;11.65
43802;BMP280;29429;51.074;13.764;2023-04-01T03:10:19;98200.50;;;11.67
43802;BMP280;29429;51.074;13.764;2023-04-01T03:12:46;98206.97;;;11.71
43802;BMP280;29429;51.074;13.764;2023-04-01T03:15:14;98212.78;;;11.68
43802;BMP280;29429;51.074;13.764;2023-04-01T03:17:42;98211.97;;;11.68
43802;BMP280;29429;51.074;13.764;2023-04-01T03:20:11;98208.75;;;11.66
43802;BMP280;29429;51.074;13.764;2023-04-01T03:22:39;98211.50;;;11.71
43802;BMP280;29429;51.074;13.764;2023-04-01T03:25:10;98209.09;;;11.69
43802;BMP280;29429;51.074;13.764;2023-04-01T03:27:37;98214.75;;;11.73
43802;BMP280;29429;51.074;13.764;2023-04-01T03:30:07;98218.78;;;11.75
43802;BMP280;29429;51.074;13.764;2023-04-01T03:32:41;98221.53;;;11.63
43802;BMP280;29429;51.074;13.764;2023-04-01T03:35:08;98218.06;;;11.63
43802;BMP280;29429;51.074;13.764;2023-04-01T03:37:37;98219.97;;;11.68
43802;BMP280;29429;51.074;13.764;2023-04-01T03:40:05;98218.13;;;11.68
43802;BMP280;29429;51.074;13.764;2023-04-01T03:42:33;98209.56;;;11.66
43802;BMP280;29429;51.074;13.764;2023-04-01T03:45:02;98221.06;;;11.67
43802;BMP280;29429;51.074;13.764;2023-04-01T03:47:29;98221.41;;;11.70
43802;BMP280;29429;51.074;13.764;2023-04-01T03:49:56;98227.78;;;11.69
43802;BMP280;29429;51.074;13.764;2023-04-01T03:52:25;98226.13;;;11.68
43802;BMP280;29429;51.074;13.764;2023-04-01T03:54:52;98223.47;;;11.68
43802;BMP280;29429;51.074;13.764;2023-04-01T03:57:19;98227.69;;;11.64
43802;BMP280;29429;51.074;13.764;2023-04-01T03:59:46;98232.09;;;11.70
43802;BMP280;29429;51.074;13.764;2023-04-01T04:02:13;98237.41;;;11.70
43802;BMP280;29429;51.074;13.764;2023-04-01T04:04:41;98229.88;;;11.67
43802;BMP280;29429;51.074;13.764;2023-04-01T04:07:09;98228.50;;;11.65
43802;BMP280;29429;51.074;13.764;2023-04-01T04:09:55;98229.19;;;11.55
43802;BMP280;29429;51.074;13.764;2023-04-01T04:12:22;98225.69;;;11.54
43802;BMP280;29429;51.074;13.764;2023-04-01T04:14:49;98229.72;;;11.57
43802;BMP280;29429;51.074;13.764;2023-04-01T04:17:16;98231.34;;;11.58
43802;BMP280;29429;51.074;13.764;2023-04-01T04:19:44;98227.31;;;11.55
43802;BMP280;29429;51.074;13.764;2023-04-01T04:22:12;98235.88;;;11.57
43802;BMP280;29429;51.074;13.764;2023-04-01T04:24:39;98232.41;;;11.57
43802;BMP280;29429;51.074;13.764;2023-04-01T04:27:09;98242.59;;;11.60
43802;BMP280;29429;51.074;13.764;2023-04-01T04:29:43;98250.09;;;11.63
43802;BMP280;29429;51.074;13.764;2023-04-01T04:32:10;98240.50;;;11.62
43802;BMP280;29429;51.074;13.764;2023-04-01T04:34:38;98249.56;;;11.61
43802;BMP280;29429;51.074;13.764;2023-04-01T04:37:05;98251.19;;;11.62
43802;BMP280;29429;51.074;13.764;2023-04-01T04:39:35;98259.25;;;11.67
43802;BMP280;29429;51.074;13.764;2023-04-01T04:42:02;98251.47;;;11.66
43802;BMP280;29429;51.074;13.764;2023-04-01T04:44:29;98251.47;;;11.66
43802;BMP280;29429;51.074;13.764;2023-04-01T04:46:57;98253.44;;;11.70
43802;BMP280;29429;51.074;13.764;2023-04-01T04:49:24;98259.25;;;11.67
43802;BMP280;29429;51.074;13.764;2023-04-01T04:51:52;98256.81;;;11.66
43802;BMP280;29429;51.074;13.764;2023-04-01T04:54:22;98262.69;;;11.68
43802;BMP280;29429;51.074;13.764;2023-04-01T04:56:56;98262.50;;;11.69
43802;BMP280;29429;51.074;13.764;2023-04-01T04:59:25;98266.53;;;11.72
43802;BMP280;29429;51.074;13.764;2023-04-01T05:02:18;98266.53;;;11.72
43802;BMP280;29429;51.074;13.764;2023-04-01T05:04:46;98273.25;;;11.74
43802;BMP280;29429;51.074;13.764;2023-04-01T05:07:14;98269.19;;;11.72
43802;BMP280;29429;51.074;13.764;2023-04-01T05:09:41;98268.72;;;11.75
43802;BMP280;29429;51.074;13.764;2023-04-01T05:12:08;98266.31;;;11.78
43802;BMP280;29429;51.074;13.764;2023-04-01T05:15:05;98273.28;;;11.79
43802;BMP280;29429;51.074;13.764;2023-04-01T05:17:32;98269.25;;;11.77
43802;BMP280;29429;51.074;13.764;2023-04-01T05:19:59;98280.25;;;11.80
43802;BMP280;29429;51.074;13.764;2023-04-01T05:22:28;98282.44;;;11.83
43802;BMP280;29429;51.074;13.764;2023-04-01T05:24:56;98272.25;;;11.80
43802;BMP280;29429;51.074;13.764;2023-04-01T05:27:23;98281.69;;;11.88
43802;BMP280;29429;51.074;13.764;2023-04-01T05:29:50;98285.22;;;11.93
43802;BMP280;29429;51.074;13.764;2023-04-01T05:32:43;98294.34;;;11.97
43802;BMP280;29429;51.074;13.764;2023-04-01T05:35:13;98286.66;;;12.01
43802;BMP280;29429;51.074;13.764;2023-04-01T05:37:40;98287.69;;;12.00
43802;BMP280;29429;51.074;13.764;2023-04-01T05:41:00;98290.19;;;12.06
43802;BMP280;29429;51.074;13.764;2023-04-01T05:43:47;98296.69;;;12.15
43802;BMP280;29429;51.074;13.764;2023-04-01T05:46:42;98302.94;;;12.26
43802;BMP280;29429;51.074;13.764;2023-04-01T05:49:23;98296.06;;;12.30
43802;BMP280;29429;51.074;13.764;2023-04-01T05:51:56;98296.97;;;12.41
43802;BMP280;29429;51.074;13.764;2023-04-01T05:54:23;98297.28;;;12.44
43802;BMP280;29429;51.074;13.764;2023-04-01T05:56:51;98295.22;;;12.51
43802;BMP280;29429;51.074;13.764;2023-04-01T05:59:19;98292.53;;;12.51
43802;BMP280;29429;51.074;13.764;2023-04-01T06:01:46;98304.09;;;12.57
43802;BMP280;29429;51.074;13.764;2023-04-01T06:04:16;98309.47;;;12.62
43802;BMP280;29429;51.074;13.764;2023-04-01T06:06:45;98311.84;;;12.58
43802;BMP280;29429;51.074;13.764;2023-04-01T06:09:19;98301.44;;;12.62
43802;BMP280;29429;51.074;13.764;2023-04-01T06:12:22;98307.34;;;12.64
43802;BMP280;29429;51.074;13.764;2023-04-01T06:15:36;98308.97;;;12.65
43802;BMP280;29429;51.074;13.764;2023-04-01T06:24:08;98312.78;;;12.74
43802;BMP280;29429;51.074;13.764;2023-04-01T06:27:48;98319.75;;;12.75
43802;BMP280;29429;51.074;13.764;2023-04-01T06:44:16;98323.38;;;12.91
43802;BMP280;29429;51.074;13.764;2023-04-01T06:47:32;98308.13;;;12.91
43802;BMP280;29429;51.074;13.764;2023-04-01T06:53:55;98321.31;;;13.03
43802;BMP280;29429;51.074;13.764;2023-04-01T06:56:52;98313.06;;;13.04
43802;BMP280;29429;51.074;13.764;2023-04-01T06:59:33;98315.78;;;13.09
43802;BMP280;29429;51.074;13.764;2023-04-01T07:04:41;98319.31;;;13.15
43802;BMP280;29429;51.074;13.764;2023-04-01T07:07:30;98320.75;;;13.27
43802;BMP280;29429;51.074;13.764;2023-04-01T07:10:11;98314.03;;;13.25
43802;BMP280;29429;51.074;13.764;2023-04-01T07:13:12;98323.44;;;13.32
43802;BMP280;29429;51.074;13.764;2023-04-01T07:16:32;98324.31;;;13.38
43802;BMP280;29429;51.074;13.764;2023-04-01T07:22:03;98318.94;;;13.38
43802;BMP280;29429;51.074;13.764;2023-04-01T07:24:54;98328.88;;;13.42
43802;BMP280;29429;51.074;13.764;2023-04-01T07:27:23;98323.53;;;13.48
43802;BMP280;29429;51.074;13.764;2023-04-01T07:29:51;98326.78;;;13.50
43802;BMP280;29429;51.074;13.764;2023-04-01T07:32:45;98332.75;;;13.62
43802;BMP280;29429;51.074;13.764;2023-04-01T07:35:41;98336.53;;;13.66
43802;BMP280;29429;51.074;13.764;2023-04-01T07:47:23;98339.81;;;13.78
43802;BMP280;29429;51.074;13.764;2023-04-01T07:50:28;98343.38;;;13.93
43802;BMP280;29429;51.074;13.764;2023-04-01T07:53:21;98350.63;;;13.98
43802;BMP280;29429;51.074;13.764;2023-04-01T07:56:12;98335.59;;;13.92
43802;BMP280;29429;51.074;13.764;2023-04-01T07:59:17;98345.56;;;14.01
43802;BMP280;29429;51.074;13.764;2023-04-01T08:05:54;98357.13;;;14.12
43802;BMP280;29429;51.074;13.764;2023-04-01T08:08:45;98360.09;;;14.16
43802;BMP280;29429;51.074;13.764;2023-04-01T08:15:33;98370.00;;;14.10
43802;BMP280;29429;51.074;13.764;2023-04-01T08:18:47;98360.84;;;14.11
43802;BMP280;29429;51.074;13.764;2023-04-01T08:21:28;98369.19;;;14.10
43802;BMP280;29429;51.074;13.764;2023-04-01T08:24:20;98367.03;;;14.12
43802;BMP280;29429;51.074;13.764;2023-04-01T08:26:56;98368.66;;;14.13
43802;BMP280;29429;51.074;13.764;2023-04-01T08:29:42;98358.50;;;14.20
43802;BMP280;29429;51.074;13.764;2023-04-01T08:32:22;98355.06;;;14.29
43802;BMP280;29429;51.074;13.764;2023-04-01T08:35:26;98359.97;;;14.42
43802;BMP280;29429;51.074;13.764;2023-04-01T08:38:01;98354.34;;;14.49
43802;BMP280;29429;51.074;13.764;2023-04-01T08:47:19;98361.63;;;14.58
43802;BMP280;29429;51.074;13.764;2023-04-01T08:49:58;98358.66;;;14.60
43802;BMP280;29429;51.074;13.764;2023-04-01T08:53:57;98365.66;;;14.61
43802;BMP280;29429;51.074;13.764;2023-04-01T08:56:27;98359.19;;;14.62
43802;BMP280;29429;51.074;13.764;2023-04-01T08:59:55;98365.91;;;14.64
43802;BMP280;29429;51.074;13.764;2023-04-01T09:15:18;98360.59;;;14.95
43802;BMP280;29429;51.074;13.764;2023-04-01T09:27:18;98363.28;;;15.00
43802;BMP280;29429;51.074;13.764;2023-04-01T09:30:33;98376.97;;;14.93
43802;BMP280;29429;51.074;13.764;2023-04-01T09:35:49;98375.06;;;14.74
43802;BMP280;29429;51.074;13.764;2023-04-01T09:39:03;98368.34;;;14.76
43802;BMP280;29429;51.074;13.764;2023-04-01T09:44:58;98366.50;;;14.92
43802;BMP280;29429;51.074;13.764;2023-04-01T09:50:46;98370.81;;;14.98
43802;BMP280;29429;51.074;13.764;2023-04-01T09:53:36;98381.56;;;14.98
43802;BMP280;29429;51.074;13.764;2023-04-01T09:56:21;98371.63;;;15.03
43802;BMP280;29429;51.074;13.764;2023-04-01T10:16:22;98376.19;;;14.98
43802;BMP280;29429;51.074;13.764;2023-04-01T10:25:42;98385.06;;;15.03
43802;BMP280;29429;51.074;13.764;2023-04-01T10:56:36;98394.16;;;14.97
43802;BMP280;29429;51.074;13.764;2023-04-01T11:03:37;98394.97;;;14.93
43802;BMP280;29429;51.074;13.764;2023-04-01T11:07:09;98394.38;;;14.81
43802;BMP280;29429;51.074;13.764;2023-04-01T11:10:28;98400.88;;;14.90
43802;BMP280;29429;51.074;13.764;2023-04-01T11:17:10;98404.38;;;15.15
43802;BMP280;29429;51.074;13.764;2023-04-01T11:27:25;98397.19;;;15.51
43802;BMP280;29429;51.074;13.764;2023-04-01T11:31:38;98394.19;;;15.63
43802;BMP280;29429;51.074;13.764;2023-04-01T11:41:45;98403.63;;;15.55
43802;BMP280;29429;51.074;13.764;2023-04-01T12:14:36;98400.88;;;15.96
43802;BMP280;29429;51.074;13.764;2023-04-01T12:20:25;98411.66;;;15.80
43802;BMP280;29429;51.074;13.764;2023-04-01T12:35:27;98405.22;;;15.71
43802;BMP280;29429;51.074;13.764;2023-04-01T13:18:34;98406.13;;;16.31
43802;BMP280;29429;51.074;13.764;2023-04-01T13:21:15;98407.28;;;16.15
43802;BMP280;29429;51.074;13.764;2023-04-01T13:24:20;98409.19;;;15.99
43802;BMP280;29429;51.074;13.764;2023-04-01T13:32:54;98425.09;;;15.55
43802;BMP280;29429;51.074;13.764;2023-04-01T13:35:53;98431.25;;;15.36
43802;BMP280;29429;51.074;13.764;2023-04-01T13:41:44;98443.84;;;15.15
43802;BMP280;29429;51.074;13.764;2023-04-01T13:44:22;98432.81;;;15.06
43802;BMP280;29429;51.074;13.764;2023-04-01T14:03:53;98433.44;;;15.74
43802;BMP280;29429;51.074;13.764;2023-04-01T14:11:10;98432.63;;;15.63
43802;BMP280;29429;51.074;13.764;2023-04-01T14:17:46;98440.72;;;15.48
43802;BMP280;29429;51.074;13.764;2023-04-01T14:29:34;98427.78;;;15.55
43802;BMP280;29429;51.074;13.764;2023-04-01T14:45:54;98444.97;;;15.44
43802;BMP280;29429;51.074;13.764;2023-04-01T15:09:41;98469.66;;;15.26
43802;BMP280;29429;51.074;13.764;2023-04-01T15:47:08;98491.69;;;15.38
43802;BMP280;29429;51.074;13.764;2023-04-01T17:06:49;98588.44;;;13.76
43802;BMP280;29429;51.074;13.764;2023-04-01T17:14:30;98619.47;;;13.72
43802;BMP280;29429;51.074;13.764;2023-04-01T17:39:33;98644.31;;;13.62
43802;BMP280;29429;51.074;13.764;2023-04-01T17:50:20;98638.66;;;13.37
43802;BMP280;29429;51.074;13.764;2023-04-01T17:53:24;98643.72;;;13.33
43802;BMP280;29429;51.074;13.764;2023-04-01T17:56:02;98661.53;;;13.45
43802;BMP280;29429;51.074;13.764;2023-04-01T17:59:34;98657.16;;;13.38
43802;BMP280;29429;51.074;13.764;2023-04-01T18:09:22;98672.28;;;13.28
43802;BMP280;29429;51.074;13.764;2023-04-01T18:22:22;98682.63;;;13.03
43802;BMP280;29429;51.074;13.764;2023-04-01T18:25:40;98674.63;;;12.86
43802;BMP280;29429;51.074;13.764;2023-04-01T18:38:13;98704.91;;;12.70
43802;BMP280;29429;51.074;13.764;2023-04-01T18:44:43;98709.16;;;12.71
43802;BMP280;29429;51.074;13.764;2023-04-01T18:51:16;98704.88;;;12.53
43802;BMP280;29429;51.074;13.764;2023-04-01T18:53:57;98713.72;;;12.54
43802;BMP280;29429;51.074;13.764;2023-04-01T18:56:43;98716.31;;;12.49
43802;BMP280;29429;51.074;13.764;2023-04-01T19:05:45;98744.97;;;12.20
43802;BMP280;29429;51.074;13.764;2023-04-01T19:08:41;98731.00;;;12.01
43802;BMP280;29429;51.074;13.764;2023-04-01T19:27:45;98747.31;;;11.88
43802;BMP280;29429;51.074;13.764;2023-04-01T19:38:06;98775.66;;;11.78
43802;BMP280;29429;51.074;13.764;2023-04-01T19:50:55;98792.63;;;11.83
43802;BMP280;29429;51.074;13.764;2023-04-01T20:00:53;98789.72;;;11.73
43802;BMP280;29429;51.074;13.764;2023-04-01T20:03:56;98819.78;;;11.80
43802;BMP280;29429;51.074;13.764;2023-04-01T20:06:59;98820.94;;;11.84
43802;BMP280;29429;51.074;13.764;2023-04-01T20:10:06;98804.69;;;11.74
43802;BMP280;29429;51.074;13.764;2023-04-01T20:13:36;98807.94;;;11.76
43802;BMP280;29429;51.074;13.764;2023-04-01T20:16:25;98815.28;;;11.81
43802;BMP280;29429;51.074;13.764;2023-04-01T20:20:03;98829.66;;;11.91
43802;BMP280;29429;51.074;13.764;2023-04-01T20:27:23;98832.78;;;11.88
43802;BMP280;29429;51.074;13.764;2023-04-01T20:37:50;98833.13;;;11.92
43802;BMP280;29429;51.074;13.764;2023-04-01T20:40:41;98846.56;;;11.97
43802;BMP280;29429;51.074;13.764;2023-04-01T20:50:28;98863.31;;;12.04
43802;BMP280;29429;51.074;13.764;2023-04-01T20:57:24;98872.81;;;12.00
43802;BMP280;29429;51.074;13.764;2023-04-01T21:04:18;98877.25;;;11.94
43802;BMP280;29429;51.074;13.764;2023-04-01T21:10:11;98890.41;;;11.84
43802;BMP280;29429;51.074;13.764;2023-04-01T21:20:49;98894.59;;;11.80
43802;BMP280;29429;51.074;13.764;2023-04-01T21:28:35;98907.84;;;11.75
43802;BMP280;29429;51.074;13.764;2023-04-01T21:31:53;98909.31;;;11.71
43802;BMP280;29429;51.074;13.764;2023-04-01T21:51:09;98930.97;;;11.17
43802;BMP280;29429;51.074;13.764;2023-04-01T22:11:45;98948.16;;;10.91
43802;BMP280;29429;51.074;13.764;2023-04-01T22:21:09;98958.34;;;10.82
43802;BMP280;29429;51.074;13.764;2023-04-01T22:24:29;98963.16;;;10.74
43802;BMP280;29429;51.074;13.764;2023-04-01T22:27:41;98970.66;;;10.65
43802;BMP280;29429;51.074;13.764;2023-04-01T22:30:44;98977.69;;;10.60
43802;BMP280;29429;51.074;13.764;2023-04-01T22:34:21;98975.56;;;10.50
43802;BMP280;29429;51.074;13.764;2023-04-01T22:37:19;98991.41;;;10.45
43802;BMP280;29429;51.074;13.764;2023-04-01T22:43:10;98987.09;;;10.26
43802;BMP280;29429;51.074;13.764;2023-04-01T22:46:07;98993.69;;;10.23
43802;BMP280;29429;51.074;13.764;2023-04-01T22:49:08;99001.53;;;10.18
43802;BMP280;29429;51.074;13.764;2023-04-01T22:55:04;98997.75;;;10.01
43802;BMP280;29429;51.074;13.764;2023-04-01T22:57:50;99012.28;;;10.05
43802;BMP280;29429;51.074;13.764;2023-04-01T23:01:24;99012.06;;;10.07
43802;BMP280;29429;51.074;13.764;2023-04-01T23:03:58;99004.44;;;9.92
43802;BMP280;29429;51.074;13.764;2023-04-01T23:06:43;99013.66;;;9.90
43802;BMP280;29429;51.074;13.764;2023-04-01T23:09:34;99020.75;;;9.96
43802;BMP280;29429;51.074;13.764;2023-04-01T23:12:10;99023.34;;;9.84
43802;BMP280;29429;51.074;13.764;2023-04-01T23:15:00;99023.53;;;9.82
43802;BMP280;29429;51.074;13.764;2023-04-01T23:21:09;99038.25;;;9.85
